createdAt,value
2022-08-31T00:02:01.975Z,2.22
2022-08-31T00:04:05.987Z,2.15
2022-08-31T00:06:13.170Z,2.30
2022-08-31T00:08:17.923Z,2.20
2022-08-31T00:10:31.726Z,2.40
2022-08-31T00:12:42.920Z,2.60
2022-08-31T00:14:52.034Z,2.60
2022-08-31T00:16:58.277Z,2.47
2022-08-31T00:19:03.016Z,2.45
2022-08-31T00:21:06.917Z,2.30
2022-08-31T00:23:15.135Z,2.45
2022-08-31T00:25:19.152Z,2.30
2022-08-31T00:27:22.930Z,2.13
2022-08-31T00:29:26.936Z,1.90
2022-08-31T00:31:31.019Z,2.10
2022-08-31T00:33:34.954Z,2.10
2022-08-31T00:35:40.909Z,2.30
2022-08-31T00:37:45.109Z,2.17
2022-08-31T00:39:56.191Z,2.05
2022-08-31T00:41:59.909Z,2.00
2022-08-31T00:44:09.520Z,2.00
2022-08-31T00:46:27.982Z,1.90
2022-08-31T00:48:31.568Z,1.92
2022-08-31T00:50:35.598Z,2.10
2022-08-31T00:52:48.001Z,2.17
2022-08-31T00:55:14.092Z,2.25
2022-08-31T00:57:32.022Z,2.00
2022-08-31T00:59:41.008Z,2.40
2022-08-31T01:01:56.261Z,2.40
2022-08-31T01:04:00.653Z,2.03
2022-08-31T01:06:07.053Z,2.35
2022-08-31T01:08:12.654Z,2.42
2022-08-31T01:10:21.037Z,2.72
2022-08-31T01:12:28.145Z,2.60
2022-08-31T01:14:35.329Z,2.25
2022-08-31T01:17:15.577Z,2.47
2022-08-31T01:19:44.795Z,3.03
2022-08-31T01:21:59.135Z,2.67
2022-08-31T01:24:07.865Z,2.58
2022-08-31T01:26:18.612Z,2.65
2022-08-31T01:28:26.017Z,2.55
2022-08-31T01:30:29.606Z,2.20
2022-08-31T01:34:10.761Z,2.53
2022-08-31T01:39:12.250Z,2.50
2022-08-31T01:41:16.019Z,2.33
2022-08-31T01:43:22.066Z,2.50
2022-08-31T01:49:04.855Z,2.53
2022-08-31T01:51:12.537Z,2.30
2022-08-31T01:53:18.786Z,2.30
2022-08-31T01:55:23.052Z,2.50
2022-08-31T01:57:34.041Z,2.35
2022-08-31T02:03:28.009Z,2.63
2022-08-31T02:05:32.029Z,2.30
2022-08-31T02:07:41.310Z,2.40
2022-08-31T02:09:51.557Z,2.15
2022-08-31T02:11:55.002Z,2.63
2022-08-31T02:13:58.448Z,1.98
2022-08-31T02:16:04.569Z,2.00
2022-08-31T02:18:12.034Z,2.33
2022-08-31T02:20:17.735Z,2.22
2022-08-31T02:22:24.066Z,2.10
2022-08-31T02:24:32.209Z,2.40
2022-08-31T02:26:36.049Z,2.47
2022-08-31T02:28:44.060Z,2.50
2022-08-31T02:30:47.911Z,2.00
2022-08-31T02:32:51.519Z,2.38
2022-08-31T02:34:58.694Z,2.40
2022-08-31T02:37:03.827Z,2.40
2022-08-31T02:39:08.447Z,2.47
2022-08-31T02:41:13.073Z,2.40
2022-08-31T02:43:24.324Z,2.35
2022-08-31T02:50:13.243Z,2.35
2022-08-31T02:52:29.523Z,2.58
2022-08-31T02:54:36.890Z,2.40
2022-08-31T02:56:44.817Z,2.58
2022-08-31T03:01:24.404Z,2.75
2022-08-31T03:03:28.675Z,2.85
2022-08-31T03:08:39.664Z,2.40
2022-08-31T03:10:45.714Z,2.25
2022-08-31T03:12:51.783Z,2.60
2022-08-31T03:14:55.364Z,2.42
2022-08-31T03:17:01.442Z,2.60
2022-08-31T03:19:31.012Z,3.50
2022-08-31T03:21:34.836Z,2.83
2022-08-31T03:23:42.322Z,3.10
2022-08-31T03:25:45.400Z,2.70
2022-08-31T03:27:49.622Z,2.97
2022-08-31T03:29:54.136Z,2.97
2022-08-31T03:32:06.231Z,2.80
2022-08-31T03:37:13.431Z,2.75
2022-08-31T03:39:17.553Z,2.60
2022-08-31T03:41:24.409Z,2.95
2022-08-31T03:43:28.858Z,2.95
2022-08-31T03:45:32.945Z,2.65
2022-08-31T03:47:44.608Z,2.88
2022-08-31T03:49:53.356Z,3.10
2022-08-31T03:52:07.483Z,2.50
2022-08-31T03:54:22.251Z,3.10
2022-08-31T03:56:31.477Z,3.17
2022-08-31T03:58:38.870Z,3.00
2022-08-31T04:00:48.065Z,2.90
2022-08-31T04:03:15.165Z,3.30
2022-08-31T04:05:45.273Z,3.30
2022-08-31T04:07:52.256Z,3.22
2022-08-31T04:10:25.229Z,3.15
2022-08-31T04:20:01.023Z,3.45
2022-08-31T04:22:29.208Z,3.22
2022-08-31T04:31:53.631Z,3.53
2022-08-31T04:34:07.567Z,2.90
2022-08-31T04:40:45.993Z,3.40
2022-08-31T04:46:00.303Z,4.00
2022-08-31T04:59:07.343Z,3.40
2022-08-31T05:01:21.505Z,3.40
2022-08-31T05:04:01.214Z,3.30
2022-08-31T05:10:10.155Z,3.38
2022-08-31T05:12:17.757Z,2.72
2022-08-31T05:14:25.444Z,3.20
2022-08-31T05:16:42.463Z,2.80
2022-08-31T05:24:02.973Z,2.83
2022-08-31T05:26:42.167Z,2.85
2022-08-31T05:44:27.679Z,2.83
2022-08-31T06:05:20.364Z,2.97
2022-08-31T06:38:14.955Z,2.42
2022-08-31T06:49:39.451Z,2.80
2022-08-31T07:13:42.326Z,2.35
2022-08-31T07:40:37.994Z,2.10
2022-08-31T08:30:47.062Z,1.80
2022-08-31T08:32:55.953Z,2.05
2022-08-31T08:35:23.190Z,2.30
2022-08-31T08:42:25.683Z,2.15
2022-08-31T08:45:03.032Z,2.22
2022-08-31T08:56:47.012Z,1.65
2022-08-31T08:59:09.956Z,1.45
2022-08-31T09:01:34.693Z,1.60
2022-08-31T09:04:09.151Z,1.30
2022-08-31T09:37:28.028Z,1.20
2022-08-31T09:46:35.240Z,0.90
2022-08-31T10:41:55.367Z,1.17
2022-08-31T11:03:09.318Z,1.00
2022-08-31T11:06:12.618Z,1.20
2022-08-31T11:23:15.095Z,0.98
2022-08-31T11:44:41.953Z,1.10
2022-08-31T11:47:46.493Z,1.35
2022-08-31T11:58:51.264Z,1.38
2022-08-31T12:01:19.866Z,1.10
2022-08-31T12:03:54.473Z,1.10
2022-08-31T12:06:04.202Z,1.10
2022-08-31T12:08:15.886Z,1.00
2022-08-31T12:10:37.077Z,0.95
2022-08-31T12:13:08.151Z,1.00
2022-08-31T12:15:19.222Z,1.23
2022-08-31T12:25:53.584Z,1.00
2022-08-31T12:28:29.335Z,1.33
2022-08-31T12:48:03.879Z,0.98
2022-08-31T12:50:34.263Z,0.95
2022-08-31T13:23:44.855Z,0.98
2022-08-31T13:42:38.222Z,1.05
2022-08-31T13:44:48.911Z,1.20
2022-08-31T13:47:08.262Z,1.17
2022-08-31T14:12:53.884Z,1.30
2022-08-31T14:35:25.903Z,1.10
2022-08-31T14:37:27.747Z,1.10
2022-08-31T14:39:52.225Z,1.20
2022-08-31T14:42:19.400Z,1.13
2022-08-31T14:51:53.547Z,1.13
2022-08-31T14:59:42.893Z,0.93
2022-08-31T15:27:49.061Z,1.40
2022-08-31T15:30:03.560Z,1.58
2022-08-31T15:33:01.987Z,1.25
2022-08-31T15:35:08.277Z,1.33
2022-08-31T15:37:47.392Z,0.93
2022-08-31T15:44:29.047Z,1.08
2022-08-31T16:16:19.809Z,1.30
2022-08-31T16:26:21.452Z,1.00
2022-08-31T16:33:46.829Z,1.73
2022-08-31T16:35:56.685Z,3.13
2022-08-31T16:43:24.585Z,1.55
2022-08-31T16:45:28.939Z,1.40
2022-08-31T17:18:41.402Z,1.60
2022-08-31T17:20:51.967Z,1.30
2022-08-31T17:22:59.860Z,1.25
2022-08-31T17:25:05.279Z,1.10
2022-08-31T17:27:46.681Z,1.20
2022-08-31T17:30:10.850Z,1.48
2022-08-31T17:32:25.625Z,1.65
2022-08-31T17:34:34.029Z,1.30
2022-08-31T17:36:43.160Z,1.25
2022-08-31T17:38:49.423Z,1.63
2022-08-31T17:40:54.258Z,1.38
2022-08-31T17:43:00.503Z,1.30
2022-08-31T17:45:07.178Z,1.02
2022-08-31T17:47:15.383Z,1.17
2022-08-31T17:49:29.733Z,1.30
2022-08-31T17:51:48.184Z,1.25
2022-08-31T17:54:55.506Z,1.80
2022-08-31T17:58:42.663Z,2.40
2022-08-31T18:01:47.039Z,2.63
2022-08-31T18:09:28.068Z,4.60
2022-08-31T18:18:53.776Z,4.47
2022-08-31T18:20:59.223Z,4.07
2022-08-31T18:23:05.018Z,3.67
2022-08-31T18:25:18.241Z,3.22
2022-08-31T18:32:57.158Z,2.35
2022-08-31T18:35:17.243Z,2.33
2022-08-31T18:37:59.436Z,1.95
2022-08-31T18:40:26.729Z,2.40
2022-08-31T18:42:57.024Z,2.45
2022-08-31T18:49:52.421Z,2.08
2022-08-31T18:52:13.142Z,2.05
2022-08-31T18:54:29.124Z,2.10
2022-08-31T18:56:37.350Z,2.08
2022-08-31T18:59:06.333Z,2.08
2022-08-31T19:01:33.968Z,1.98
2022-08-31T19:08:24.943Z,2.80
2022-08-31T19:10:38.225Z,2.58
2022-08-31T19:12:56.203Z,2.75
2022-08-31T19:15:21.246Z,2.67
2022-08-31T19:17:42.002Z,2.95
2022-08-31T19:20:10.050Z,3.08
2022-08-31T19:22:41.238Z,2.75
2022-08-31T19:25:01.952Z,2.40
2022-08-31T19:27:20.588Z,2.45
2022-08-31T19:29:36.565Z,2.47
2022-08-31T19:32:18.617Z,2.42
2022-08-31T19:34:47.986Z,2.70
2022-08-31T19:37:07.435Z,3.20
2022-08-31T19:39:43.653Z,2.70
2022-08-31T19:47:25.274Z,3.20
2022-08-31T19:52:29.984Z,2.95
2022-08-31T19:54:53.125Z,2.88
2022-08-31T20:00:13.495Z,3.20
2022-08-31T20:02:42.048Z,2.83
2022-08-31T20:05:26.374Z,2.90
2022-08-31T20:07:36.687Z,2.70
2022-08-31T20:09:47.305Z,2.85
2022-08-31T20:12:08.314Z,3.13
2022-08-31T20:14:33.017Z,2.35
2022-08-31T20:16:48.641Z,2.90
2022-08-31T20:19:10.062Z,2.80
2022-08-31T20:21:29.737Z,2.70
2022-08-31T20:23:39.690Z,2.80
2022-08-31T20:25:58.183Z,2.58
2022-08-31T20:28:24.485Z,2.70
2022-08-31T20:30:44.743Z,3.08
2022-08-31T20:33:07.916Z,2.95
2022-08-31T20:35:37.091Z,2.60
2022-08-31T20:37:50.807Z,2.78
2022-08-31T20:40:24.100Z,2.70
2022-08-31T20:42:48.858Z,2.75
2022-08-31T20:44:59.987Z,2.85
2022-08-31T20:47:24.404Z,2.50
2022-08-31T20:49:45.736Z,2.60
2022-08-31T20:51:56.410Z,2.58
2022-08-31T20:54:07.691Z,2.60
2022-08-31T20:56:24.254Z,2.90
2022-08-31T20:58:34.027Z,2.85
2022-08-31T21:00:48.065Z,3.35
2022-08-31T21:07:57.301Z,3.10
2022-08-31T21:10:19.053Z,2.88
2022-08-31T21:12:34.496Z,3.08
2022-08-31T21:14:44.197Z,3.20
2022-08-31T21:16:59.029Z,3.45
2022-08-31T21:19:21.816Z,3.20
2022-08-31T21:21:47.213Z,2.80
2022-08-31T21:24:10.619Z,3.08
2022-08-31T21:26:39.081Z,2.92
2022-08-31T21:28:52.013Z,3.40
2022-08-31T21:31:27.486Z,3.25
2022-08-31T21:33:46.022Z,3.38
2022-08-31T21:36:15.823Z,3.80
2022-08-31T21:38:50.526Z,3.28
2022-08-31T21:41:17.238Z,3.00
2022-08-31T21:43:47.001Z,2.80
2022-08-31T21:46:23.150Z,2.90
2022-08-31T21:48:46.744Z,3.20
2022-08-31T21:51:02.573Z,2.92
2022-08-31T21:53:28.673Z,2.70
2022-08-31T21:55:53.419Z,2.70
2022-08-31T21:58:07.729Z,2.70
2022-08-31T22:00:28.145Z,2.40
2022-08-31T22:02:46.995Z,2.30
2022-08-31T22:05:33.030Z,2.42
2022-08-31T22:08:01.750Z,2.60
2022-08-31T22:10:18.084Z,2.55
2022-08-31T22:12:58.809Z,2.80
2022-08-31T22:15:35.829Z,2.60
2022-08-31T22:18:35.253Z,2.90
2022-08-31T22:25:33.484Z,2.67
2022-08-31T22:30:24.039Z,3.05
2022-08-31T22:32:42.967Z,2.88
2022-08-31T22:34:50.168Z,2.95
2022-08-31T22:37:02.054Z,3.43
2022-08-31T22:39:26.202Z,2.80
2022-08-31T22:41:43.457Z,2.53
2022-08-31T22:44:27.607Z,2.83
2022-08-31T22:46:41.676Z,2.72
2022-08-31T22:48:58.278Z,2.67
2022-08-31T22:51:17.348Z,2.30
2022-08-31T22:53:35.327Z,2.63
2022-08-31T22:55:50.095Z,2.55
2022-08-31T22:58:00.961Z,2.80
2022-08-31T23:03:03.543Z,2.50
2022-08-31T23:05:25.646Z,2.60
2022-08-31T23:07:40.087Z,2.70
2022-08-31T23:10:04.730Z,2.45
2022-08-31T23:12:23.174Z,2.75
2022-08-31T23:15:18.678Z,2.25
2022-08-31T23:17:43.597Z,2.42
2022-08-31T23:20:21.174Z,2.65
2022-08-31T23:22:36.956Z,2.55
2022-08-31T23:24:54.158Z,2.40
2022-08-31T23:30:12.142Z,2.42
2022-08-31T23:35:44.824Z,2.20
2022-08-31T23:37:51.497Z,2.25
2022-08-31T23:40:18.514Z,2.10
2022-08-31T23:42:59.812Z,1.85
2022-08-31T23:45:43.069Z,2.30
2022-08-31T23:47:47.761Z,1.90
2022-08-31T23:49:53.406Z,2.00
2022-08-31T23:51:59.562Z,1.90
2022-08-31T23:54:10.073Z,2.13
2022-08-31T23:56:17.022Z,1.85
2022-08-31T23:58:25.599Z,2.00
